Private Wetterstation Sandau
Wetterdaten: Dienstag, 27.03.2012
Datum Zeit Temp. A. Feuchte A. Luftdruck Regen Wind Richtung Richtung Taupunkt Windchill
27.03.2012 00:02 8,7 C 72 % 1033,1 hPa 0,0 l/m 1,4 km/h (1 Bft) W-NW 292 3,9 C 8,7 C
27.03.2012 00:07 8,6 C 72 % 1033,2 hPa 0,0 l/m 0,0 km/h (0 Bft) W-NW 292 3,8 C 8,6 C
27.03.2012 00:12 8,6 C 73 % 1033,2 hPa 0,0 l/m 0,0 km/h (0 Bft) W-NW 292 4,0 C 8,6 C
27.03.2012 00:17 8,5 C 73 % 1033,3 hPa 0,0 l/m 0,0 km/h (0 Bft) W-NW 292 3,9 C 8,5 C
27.03.2012 00:22 8,4 C 73 % 1033,1 hPa 0,0 l/m 2,5 km/h (1 Bft) W-NW 292 3,8 C 8,4 C
27.03.2012 00:27 8,4 C 74 % 1033,1 hPa 0,0 l/m 0,0 km/h (0 Bft) W-NW 292 4,0 C 8,4 C
27.03.2012 00:32 8,3 C 74 % 1033,0 hPa 0,0 l/m 0,0 km/h (0 Bft) W-NW 292 3,9 C 8,3 C
27.03.2012 00:37 8,2 C 75 % 1033,1 hPa 0,0 l/m 4,0 km/h (1 Bft) W-NW 292 4,0 C 8,2 C
27.03.2012 00:42 8,1 C 75 % 1033,0 hPa 0,0 l/m 2,5 km/h (1 Bft) W 270 3,9 C 8,1 C
27.03.2012 00:47 8,1 C 75 % 1033,0 hPa 0,0 l/m 2,5 km/h (1 Bft) W 270 3,9 C 8,1 C
27.03.2012 00:52 7,9 C 76 % 1032,8 hPa 0,0 l/m 0,0 km/h (0 Bft) W-NW 292 3,9 C 7,9 C
27.03.2012 00:57 7,9 C 76 % 1032,8 hPa 0,0 l/m 4,0 km/h (1 Bft) W 270 3,9 C 7,9 C
27.03.2012 01:02 7,9 C 76 % 1033,0 hPa 0,0 l/m 2,5 km/h (1 Bft) NW 315 3,9 C 7,9 C
27.03.2012 01:07 7,8 C 77 % 1033,0 hPa 0,0 l/m 5,4 km/h (1 Bft) W-NW 292 4,0 C 7,1 C
27.03.2012 01:12 7,6 C 77 % 1033,0 hPa 0,0 l/m 2,9 km/h (1 Bft) W-SW 247 3,8 C 7,6 C
27.03.2012 01:17 7,6 C 78 % 1032,9 hPa 0,0 l/m 2,9 km/h (1 Bft) W-NW 292 4,0 C 7,6 C
27.03.2012 01:22 7,5 C 78 % 1032,8 hPa 0,0 l/m 2,9 km/h (1 Bft) W-NW 292 3,9 C 7,5 C
27.03.2012 01:27 7,4 C 78 % 1032,8 hPa 0,0 l/m 6,1 km/h (2 Bft) W-NW 292 3,8 C 6,5 C
27.03.2012 01:32 7,4 C 79 % 1032,6 hPa 0,0 l/m 7,6 km/h (2 Bft) W-NW 292 4,0 C 6,0 C
27.03.2012 01:37 7,3 C 79 % 1032,6 hPa 0,0 l/m 6,1 km/h (2 Bft) W-NW 292 3,9 C 6,3 C
27.03.2012 01:42 7,3 C 79 % 1032,6 hPa 0,0 l/m 5,0 km/h (1 Bft) W 270 3,9 C 6,7 C
27.03.2012 01:47 7,3 C 80 % 1032,5 hPa 0,0 l/m 4,7 km/h (1 Bft) W-NW 292 4,1 C 6,8 C
27.03.2012 01:52 7,2 C 80 % 1032,5 hPa 0,0 l/m 5,0 km/h (1 Bft) W-NW 292 4,0 C 6,6 C
27.03.2012 01:57 7,2 C 80 % 1032,4 hPa 0,0 l/m 5,0 km/h (1 Bft) W 270 4,0 C 6,6 C
27.03.2012 02:02 7,2 C 80 % 1032,4 hPa 0,0 l/m 3,2 km/h (1 Bft) W 270 4,0 C 7,2 C
27.03.2012 02:07 7,1 C 81 % 1032,3 hPa 0,0 l/m 2,9 km/h (1 Bft) W 270 4,1 C 7,1 C
27.03.2012 02:12 7,1 C 81 % 1032,3 hPa 0,0 l/m 2,9 km/h (1 Bft) W 270 4,1 C 7,1 C
27.03.2012 02:17 7,0 C 81 % 1032,2 hPa 0,0 l/m 10,1 km/h (2 Bft) W-NW 292 4,0 C 5,0 C
27.03.2012 02:22 7,0 C 81 % 1032,3 hPa 0,0 l/m 5,4 km/h (1 Bft) W 270 4,0 C 6,2 C
27.03.2012 02:27 6,9 C 82 % 1032,0 hPa 0,0 l/m 8,6 km/h (2 Bft) W 270 4,0 C 5,2 C
27.03.2012 02:32 6,9 C 82 % 1032,0 hPa 0,0 l/m 6,1 km/h (2 Bft) W-NW 292 4,0 C 5,9 C
27.03.2012 02:37 6,8 C 82 % 1032,0 hPa 0,0 l/m 5,0 km/h (1 Bft) W-NW 292 3,9 C 6,1 C
27.03.2012 02:42 6,6 C 82 % 1032,1 hPa 0,0 l/m 3,6 km/h (1 Bft) W 270 3,8 C 6,6 C
27.03.2012 02:47 6,6 C 82 % 1032,2 hPa 0,0 l/m 9,7 km/h (2 Bft) W 270 3,8 C 4,6 C
27.03.2012 02:52 6,5 C 83 % 1032,0 hPa 0,0 l/m 5,4 km/h (1 Bft) W 270 3,8 C 5,6 C
27.03.2012 02:57 6,5 C 83 % 1032,0 hPa 0,0 l/m 11,5 km/h (2 Bft) NW 315 3,8 C 4,2 C
27.03.2012 03:02 6,5 C 84 % 1031,9 hPa 0,0 l/m 14,4 km/h (3 Bft) W-NW 292 4,0 C 3,7 C
27.03.2012 03:07 6,5 C 85 % 1032,0 hPa 0,0 l/m 11,9 km/h (2 Bft) W-NW 292 4,2 C 4,1 C
27.03.2012 03:12 6,4 C 85 % 1032,0 hPa 0,0 l/m 12,2 km/h (2 Bft) W-NW 292 4,1 C 3,9 C
27.03.2012 03:17 6,4 C 85 % 1031,9 hPa 0,0 l/m 13,3 km/h (3 Bft) W-NW 292 4,1 C 3,7 C
27.03.2012 03:22 6,4 C 86 % 1031,7 hPa 0,0 l/m 7,6 km/h (2 Bft) W 270 4,2 C 4,9 C
27.03.2012 03:27 6,4 C 86 % 1031,8 hPa 0,0 l/m 6,5 km/h (2 Bft) W 270 4,2 C 5,2 C
27.03.2012 03:32 6,4 C 86 % 1031,7 hPa 0,0 l/m 10,4 km/h (2 Bft) W 270 4,2 C 4,3 C
27.03.2012 03:37 6,3 C 86 % 1031,7 hPa 0,0 l/m 6,8 km/h (2 Bft) NW 315 4,1 C 5,0 C
27.03.2012 03:42 6,4 C 86 % 1031,6 hPa 0,0 l/m 7,2 km/h (2 Bft) W-NW 292 4,2 C 5,0 C
27.03.2012 03:47 6,4 C 87 % 1031,6 hPa 0,0 l/m 8,6 km/h (2 Bft) W-NW 292 4,4 C 4,6 C
27.03.2012 03:52 6,4 C 87 % 1031,5 hPa 0,0 l/m 14,0 km/h (3 Bft) W-NW 292 4,4 C 3,6 C
27.03.2012 03:57 6,5 C 87 % 1031,6 hPa 0,0 l/m 18,0 km/h (3 Bft) W-NW 292 4,5 C 3,2 C
27.03.2012 04:02 6,5 C 87 % 1031,5 hPa 0,0 l/m 8,6 km/h (2 Bft) W 270 4,5 C 4,8 C
27.03.2012 04:07 6,6 C 87 % 1031,5 hPa 0,0 l/m 8,3 km/h (2 Bft) W-NW 292 4,6 C 4,9 C
27.03.2012 04:12 6,6 C 87 % 1031,4 hPa 0,0 l/m 13,0 km/h (3 Bft) W-NW 292 4,6 C 4,0 C
27.03.2012 04:17 6,7 C 87 % 1031,2 hPa 0,0 l/m 3,2 km/h (1 Bft) W-NW 292 4,7 C 6,7 C
27.03.2012 04:22 6,8 C 87 % 1031,2 hPa 0,0 l/m 3,2 km/h (1 Bft) W 270 4,8 C 6,8 C
27.03.2012 04:27 6,8 C 87 % 1031,2 hPa 0,0 l/m 10,4 km/h (2 Bft) W-NW 292 4,8 C 4,7 C
27.03.2012 04:32 6,8 C 87 % 1031,1 hPa 0,0 l/m 4,7 km/h (1 Bft) W-NW 292 4,8 C 6,2 C
27.03.2012 04:37 6,8 C 87 % 1030,9 hPa 0,0 l/m 9,4 km/h (2 Bft) W 270 4,8 C 4,9 C
27.03.2012 04:42 6,8 C 87 % 1030,8 hPa 0,0 l/m 4,0 km/h (1 Bft) W 270 4,8 C 6,8 C
27.03.2012 04:47 6,7 C 87 % 1030,8 hPa 0,0 l/m 2,2 km/h (1 Bft) W 270 4,7 C 6,7 C
27.03.2012 04:52 6,7 C 87 % 1030,8 hPa 0,0 l/m 6,1 km/h (2 Bft) W 270 4,7 C 5,6 C
27.03.2012 04:57 6,6 C 87 % 1030,7 hPa 0,0 l/m 8,6 km/h (2 Bft) W-SW 247 4,6 C 4,9 C
27.03.2012 05:02 6,6 C 87 % 1030,7 hPa 0,0 l/m 4,7 km/h (1 Bft) W 270 4,6 C 6,0 C
27.03.2012 05:07 6,5 C 87 % 1030,8 hPa 0,0 l/m 6,1 km/h (2 Bft) NW 315 4,5 C 5,4 C
27.03.2012 05:12 6,5 C 87 % 1030,7 hPa 0,0 l/m 6,1 km/h (2 Bft) W 270 4,5 C 5,4 C
27.03.2012 05:17 6,4 C 87 % 1030,7 hPa 0,0 l/m 8,6 km/h (2 Bft) W-SW 247 4,4 C 4,6 C
27.03.2012 05:22 6,4 C 87 % 1030,8 hPa 0,0 l/m 8,6 km/h (2 Bft) W-NW 292 4,4 C 4,6 C
27.03.2012 05:27 6,4 C 87 % 1030,7 hPa 0,0 l/m 5,0 km/h (1 Bft) W-NW 292 4,4 C 5,7 C
27.03.2012 05:32 6,3 C 87 % 1030,8 hPa 0,0 l/m 8,3 km/h (2 Bft) W 270 4,3 C 4,6 C
27.03.2012 05:37 6,3 C 87 % 1030,8 hPa 0,0 l/m 11,5 km/h (2 Bft) W-SW 247 4,3 C 3,9 C
27.03.2012 05:42 6,3 C 87 % 1030,8 hPa 0,0 l/m 6,1 km/h (2 Bft) W 270 4,3 C 5,2 C
27.03.2012 05:47 6,3 C 87 % 1030,4 hPa 0,0 l/m 2,2 km/h (1 Bft) W-SW 247 4,3 C 6,3 C
27.03.2012 05:52 6,2 C 87 % 1030,5 hPa 0,0 l/m 5,0 km/h (1 Bft) W-NW 292 4,2 C 5,4 C
27.03.2012 05:57 6,2 C 87 % 1030,5 hPa 0,0 l/m 3,6 km/h (1 Bft) W-SW 247 4,2 C 6,2 C
27.03.2012 06:02 6,1 C 87 % 1030,7 hPa 0,0 l/m 5,4 km/h (1 Bft) W 270 4,1 C 5,2 C
27.03.2012 06:07 6,1 C 87 % 1030,5 hPa 0,0 l/m 6,1 km/h (2 Bft) W 270 4,1 C 5,0 C
27.03.2012 06:12 6,1 C 87 % 1030,5 hPa 0,0 l/m 6,5 km/h (2 Bft) W 270 4,1 C 4,8 C
27.03.2012 06:17 6,0 C 87 % 1030,4 hPa 0,0 l/m 4,3 km/h (1 Bft) W-NW 292 4,0 C 6,0 C
27.03.2012 06:22 6,0 C 87 % 1030,2 hPa 0,0 l/m 4,3 km/h (1 Bft) W 270 4,0 C 6,0 C
27.03.2012 06:27 5,9 C 87 % 1030,4 hPa 0,0 l/m 10,4 km/h (2 Bft) NW 315 3,9 C 3,7 C
27.03.2012 06:32 5,9 C 87 % 1030,2 hPa 0,0 l/m 6,1 km/h (2 Bft) W 270 3,9 C 4,7 C
27.03.2012 06:37 5,9 C 87 % 1030,2 hPa 0,0 l/m 9,0 km/h (2 Bft) W-SW 247 3,9 C 4,0 C
27.03.2012 06:42 5,9 C 87 % 1030,2 hPa 0,0 l/m 10,8 km/h (2 Bft) W-NW 292 3,9 C 3,6 C
27.03.2012 06:47 5,8 C 87 % 1030,2 hPa 0,0 l/m 8,3 km/h (2 Bft) W-NW 292 3,8 C 4,0 C
27.03.2012 06:52 5,8 C 87 % 1030,2 hPa 0,0 l/m 4,0 km/h (1 Bft) W 270 3,8 C 5,8 C
27.03.2012 06:57 5,8 C 87 % 1030,2 hPa 0,0 l/m 5,0 km/h (1 Bft) W 270 3,8 C 5,0 C
27.03.2012 07:02 5,8 C 87 % 1030,2 hPa 0,0 l/m 6,5 km/h (2 Bft) W 270 3,8 C 4,5 C
27.03.2012 07:07 5,8 C 87 % 1030,2 hPa 0,0 l/m 6,5 km/h (2 Bft) W-NW 292 3,8 C 4,5 C
27.03.2012 07:12 5,7 C 87 % 1030,4 hPa 0,0 l/m 4,7 km/h (1 Bft) W-SW 247 3,7 C 5,0 C
27.03.2012 07:17 5,7 C 87 % 1030,3 hPa 0,0 l/m 2,2 km/h (1 Bft) W 270 3,7 C 5,7 C
27.03.2012 07:22 5,6 C 87 % 1030,1 hPa 0,0 l/m 4,0 km/h (1 Bft) W 270 3,6 C 5,6 C
27.03.2012 07:27 5,6 C 87 % 1030,3 hPa 0,0 l/m 3,6 km/h (1 Bft) W 270 3,6 C 5,6 C
27.03.2012 07:32 5,6 C 87 % 1030,3 hPa 0,0 l/m 9,0 km/h (2 Bft) W-NW 292 3,6 C 3,6 C
27.03.2012 07:37 5,6 C 87 % 1030,2 hPa 0,0 l/m 6,5 km/h (2 Bft) W 270 3,6 C 4,3 C
27.03.2012 07:42 5,6 C 87 % 1030,2 hPa 0,0 l/m 9,4 km/h (2 Bft) W-NW 292 3,6 C 3,5 C
27.03.2012 07:47 5,7 C 87 % 1030,1 hPa 0,0 l/m 6,1 km/h (2 Bft) W 270 3,7 C 4,5 C
27.03.2012 07:52 5,8 C 87 % 1030,2 hPa 0,0 l/m 10,4 km/h (2 Bft) W 270 3,8 C 3,5 C
27.03.2012 07:57 5,8 C 87 % 1030,2 hPa 0,0 l/m 7,6 km/h (2 Bft) W-NW 292 3,8 C 4,2 C
27.03.2012 08:02 5,8 C 87 % 1030,2 hPa 0,0 l/m 5,4 km/h (1 Bft) W-NW 292 3,8 C 4,8 C
27.03.2012 08:07 5,9 C 87 % 1030,3 hPa 0,0 l/m 6,5 km/h (2 Bft) W-NW 292 3,9 C 4,6 C
27.03.2012 08:12 5,9 C 87 % 1030,4 hPa 0,0 l/m 4,0 km/h (1 Bft) N-NW 337 3,9 C 5,9 C
27.03.2012 08:17 5,9 C 87 % 1030,6 hPa 0,0 l/m 3,6 km/h (1 Bft) W-NW 292 3,9 C 5,9 C
27.03.2012 08:22 6,1 C 87 % 1030,6 hPa 0,0 l/m 2,5 km/h (1 Bft) NW 315 4,1 C 6,1 C
27.03.2012 08:27 6,1 C 87 % 1030,7 hPa 0,0 l/m 4,0 km/h (1 Bft) NW 315 4,1 C 6,1 C
27.03.2012 08:32 6,3 C 87 % 1030,8 hPa 0,0 l/m 0,0 km/h (0 Bft) N-NW 337 4,3 C 6,3 C
27.03.2012 08:37 6,4 C 87 % 1030,6 hPa 0,0 l/m 7,2 km/h (2 Bft) NW 315 4,4 C 5,0 C
27.03.2012 08:42 6,4 C 87 % 1030,7 hPa 0,0 l/m 7,6 km/h (2 Bft) W 270 4,4 C 4,9 C
27.03.2012 08:47 6,5 C 87 % 1030,4 hPa 0,0 l/m 6,1 km/h (2 Bft) NW 315 4,5 C 5,4 C
27.03.2012 08:52 6,6 C 87 % 1030,6 hPa 0,0 l/m 9,4 km/h (2 Bft) W-NW 292 4,6 C 4,7 C
27.03.2012 08:57 6,8 C 87 % 1030,6 hPa 0,0 l/m 10,4 km/h (2 Bft) W-NW 292 4,8 C 4,7 C
27.03.2012 09:02 6,8 C 87 % 1030,6 hPa 0,0 l/m 9,4 km/h (2 Bft) W 270 4,8 C 4,9 C
27.03.2012 09:07 6,9 C 86 % 1030,7 hPa 0,0 l/m 2,9 km/h (1 Bft) NW 315 4,7 C 6,9 C
27.03.2012 09:12 6,9 C 86 % 1030,8 hPa 0,0 l/m 6,1 km/h (2 Bft) N 360 4,7 C 5,9 C
27.03.2012 09:17 7,0 C 86 % 1030,7 hPa 0,0 l/m 6,1 km/h (2 Bft) NO 45 4,8 C 6,0 C
27.03.2012 09:22 7,1 C 86 % 1030,7 hPa 0,0 l/m 3,2 km/h (1 Bft) N 360 4,9 C 7,1 C
27.03.2012 09:27 7,2 C 86 % 1030,8 hPa 0,0 l/m 7,6 km/h (2 Bft) N-NW 337 5,0 C 5,8 C
27.03.2012 09:32 7,2 C 86 % 1030,8 hPa 0,0 l/m 3,6 km/h (1 Bft) W-NW 292 5,0 C 7,2 C
27.03.2012 09:37 7,3 C 86 % 1030,8 hPa 0,0 l/m 4,0 km/h (1 Bft) W 270 5,1 C 7,3 C
27.03.2012 09:42 7,4 C 86 % 1030,6 hPa 0,0 l/m 4,3 km/h (1 Bft) NW 315 5,2 C 7,4 C
27.03.2012 09:47 7,6 C 85 % 1030,8 hPa 0,0 l/m 9,4 km/h (2 Bft) W-NW 292 5,2 C 5,9 C
27.03.2012 09:52 7,8 C 86 % 1030,9 hPa 0,0 l/m 14,8 km/h (3 Bft) W-NW 292 5,6 C 5,2 C
27.03.2012 09:57 7,9 C 85 % 1031,0 hPa 0,0 l/m 7,6 km/h (2 Bft) N-NW 337 5,5 C 6,6 C
27.03.2012 10:02 7,9 C 85 % 1031,1 hPa 0,0 l/m 6,1 km/h (2 Bft) W-NW 292 5,5 C 7,0 C
27.03.2012 10:07 8,1 C 85 % 1030,9 hPa 0,0 l/m 9,7 km/h (2 Bft) N-NW 337 5,7 C 6,4 C
27.03.2012 10:12 8,1 C 84 % 1030,9 hPa 0,0 l/m 7,6 km/h (2 Bft) N-NW 337 5,6 C 6,9 C
27.03.2012 10:17 8,3 C 84 % 1030,9 hPa 0,0 l/m 12,2 km/h (2 Bft) W-NW 292 5,8 C 6,2 C
27.03.2012 10:22 8,5 C 84 % 1031,1 hPa 0,0 l/m 7,2 km/h (2 Bft) NW 315 6,0 C 7,4 C
27.03.2012 10:27 8,6 C 84 % 1031,0 hPa 0,0 l/m 4,3 km/h (1 Bft) W-SW 247 6,1 C 8,6 C
27.03.2012 10:32 8,9 C 84 % 1030,9 hPa 0,0 l/m 11,2 km/h (2 Bft) NW 315 6,3 C 7,1 C
27.03.2012 10:37 9,1 C 83 % 1031,1 hPa 0,0 l/m 6,8 km/h (2 Bft) O-NO 67 6,4 C 8,2 C
27.03.2012 10:42 9,3 C 82 % 1031,1 hPa 0,0 l/m 8,6 km/h (2 Bft) NW 315 6,4 C 8,1 C
27.03.2012 10:47 9,4 C 82 % 1031,0 hPa 0,0 l/m 10,1 km/h (2 Bft) N-NW 337 6,5 C 7,9 C
27.03.2012 10:52 9,6 C 81 % 1030,9 hPa 0,0 l/m 6,5 km/h (2 Bft) W 270 6,5 C 8,9 C
27.03.2012 10:57 9,9 C 81 % 1031,1 hPa 0,0 l/m 10,1 km/h (2 Bft) W-NW 292 6,8 C 8,5 C
27.03.2012 11:02 10,1 C 80 % 1031,1 hPa 0,0 l/m 12,2 km/h (2 Bft) W-NW 292 6,8 C 10,1 C
27.03.2012 11:07 10,3 C 79 % 1031,2 hPa 0,0 l/m 9,7 km/h (2 Bft) N-NW 337 6,8 C 10,3 C
27.03.2012 11:12 10,4 C 79 % 1030,9 hPa 0,0 l/m 4,0 km/h (1 Bft) N-NW 337 6,9 C 10,4 C
27.03.2012 11:17 10,6 C 78 % 1031,0 hPa 0,0 l/m 6,1 km/h (2 Bft) W-NW 292 6,9 C 10,6 C
27.03.2012 11:22 10,8 C 78 % 1031,0 hPa 0,0 l/m 9,7 km/h (2 Bft) W 270 7,1 C 10,8 C
27.03.2012 11:27 10,9 C 77 % 1031,2 hPa 0,0 l/m 7,2 km/h (2 Bft) N 360 7,0 C 10,9 C
27.03.2012 11:32 10,9 C 77 % 1031,2 hPa 0,0 l/m 6,5 km/h (2 Bft) NW 315 7,0 C 10,9 C
27.03.2012 11:37 11,0 C 76 % 1031,2 hPa 0,0 l/m 6,1 km/h (2 Bft) N 360 6,9 C 11,0 C
27.03.2012 11:42 11,2 C 76 % 1031,1 hPa 0,0 l/m 6,8 km/h (2 Bft) N-NW 337 7,1 C 11,2 C
27.03.2012 11:47 11,4 C 76 % 1031,2 hPa 0,0 l/m 3,2 km/h (1 Bft) W 270 7,3 C 11,4 C
27.03.2012 11:52 11,5 C 76 % 1031,2 hPa 0,0 l/m 5,4 km/h (1 Bft) N-NW 337 7,4 C 11,5 C
27.03.2012 11:57 11,7 C 75 % 1031,1 hPa 0,0 l/m 8,3 km/h (2 Bft) NW 315 7,4 C 11,7 C
27.03.2012 12:02 11,8 C 74 % 1031,0 hPa 0,0 l/m 9,7 km/h (2 Bft) W 270 7,3 C 11,8 C
27.03.2012 12:07 11,9 C 74 % 1030,9 hPa 0,0 l/m 2,5 km/h (1 Bft) W-NW 292 7,4 C 11,9 C
27.03.2012 12:12 12,1 C 73 % 1031,0 hPa 0,0 l/m 13,3 km/h (3 Bft) W-NW 292 7,4 C 12,1 C
27.03.2012 12:17 12,1 C 73 % 1031,2 hPa 0,0 l/m 7,2 km/h (2 Bft) W 270 7,4 C 12,1 C
27.03.2012 12:22 12,3 C 72 % 1031,2 hPa 0,0 l/m 11,5 km/h (2 Bft) W 270 7,4 C 12,3 C
27.03.2012 12:27 12,4 C 72 % 1031,1 hPa 0,0 l/m 10,1 km/h (2 Bft) NW 315 7,5 C 12,4 C
27.03.2012 12:32 12,5 C 72 % 1031,2 hPa 0,0 l/m 0,0 km/h (0 Bft) O-SO 112 7,6 C 12,5 C
27.03.2012 12:37 12,6 C 72 % 1031,1 hPa 0,0 l/m 8,3 km/h (2 Bft) N-NW 337 7,7 C 12,6 C
27.03.2012 12:42 12,8 C 71 % 1031,1 hPa 0,0 l/m 5,8 km/h (2 Bft) W-SW 247 7,7 C 12,8 C
27.03.2012 12:47 13,0 C 71 % 1031,1 hPa 0,0 l/m 8,6 km/h (2 Bft) N-NW 337 7,9 C 13,0 C
27.03.2012 12:52 13,2 C 70 % 1031,0 hPa 0,0 l/m 5,8 km/h (2 Bft) N-NW 337 7,9 C 13,2 C
27.03.2012 12:57 13,3 C 69 % 1031,1 hPa 0,0 l/m 20,9 km/h (4 Bft) W-NW 292 7,7 C 13,3 C
27.03.2012 13:02 13,4 C 69 % 1030,9 hPa 0,0 l/m 16,6 km/h (3 Bft) W 270 7,8 C 13,4 C
27.03.2012 13:07 13,6 C 68 % 1030,8 hPa 0,0 l/m 6,5 km/h (2 Bft) N-NO 22 7,8 C 13,6 C
27.03.2012 13:12 13,6 C 67 % 1030,8 hPa 0,0 l/m 7,9 km/h (2 Bft) W-NW 292 7,6 C 13,6 C
27.03.2012 13:17 13,6 C 68 % 1031,0 hPa 0,0 l/m 5,8 km/h (2 Bft) N 360 7,8 C 13,6 C
27.03.2012 13:22 13,7 C 67 % 1031,0 hPa 0,0 l/m 6,1 km/h (2 Bft) NW 315 7,7 C 13,7 C
27.03.2012 13:27 13,9 C 68 % 1031,1 hPa 0,0 l/m 13,0 km/h (3 Bft) NW 315 8,1 C 13,9 C
27.03.2012 13:32 14,1 C 67 % 1030,9 hPa 0,0 l/m 6,5 km/h (2 Bft) O-NO 67 8,1 C 14,1 C
27.03.2012 13:37 14,2 C 67 % 1031,0 hPa 0,0 l/m 11,2 km/h (2 Bft) NW 315 8,2 C 14,2 C
27.03.2012 13:42 14,3 C 67 % 1031,0 hPa 0,0 l/m 9,0 km/h (2 Bft) W 270 8,3 C 14,3 C
27.03.2012 13:47 14,4 C 65 % 1031,0 hPa 0,0 l/m 23,4 km/h (4 Bft) NW 315 7,9 C 14,4 C
27.03.2012 13:52 14,4 C 66 % 1031,0 hPa 0,0 l/m 13,3 km/h (3 Bft) W-NW 292 8,1 C 14,4 C
27.03.2012 13:57 14,6 C 65 % 1031,0 hPa 0,0 l/m 12,2 km/h (2 Bft) W-NW 292 8,1 C 14,6 C
27.03.2012 14:02 14,7 C 65 % 1031,0 hPa 0,0 l/m 10,4 km/h (2 Bft) NW 315 8,2 C 14,7 C
27.03.2012 14:07 14,9 C 65 % 1031,0 hPa 0,0 l/m 8,3 km/h (2 Bft) O-NO 67 8,4 C 14,9 C
27.03.2012 14:12 14,9 C 65 % 1030,8 hPa 0,0 l/m 18,4 km/h (3 Bft) NW 315 8,4 C 14,9 C
27.03.2012 14:17 15,1 C 64 % 1030,7 hPa 0,0 l/m 6,5 km/h (2 Bft) W-NW 292 8,3 C 15,1 C
27.03.2012 14:22 15,1 C 64 % 1030,8 hPa 0,0 l/m 3,6 km/h (1 Bft) N-NO 22 8,3 C 15,1 C
27.03.2012 14:27 15,3 C 63 % 1030,8 hPa 0,0 l/m 11,9 km/h (2 Bft) W-NW 292 8,3 C 15,3 C
27.03.2012 14:32 15,4 C 62 % 1030,7 hPa 0,0 l/m 9,0 km/h (2 Bft) N-NO 22 8,2 C 15,4 C
27.03.2012 14:37 15,3 C 63 % 1030,6 hPa 0,0 l/m 11,2 km/h (2 Bft) N 360 8,3 C 15,3 C
27.03.2012 14:42 15,5 C 63 % 1030,6 hPa 0,0 l/m 14,4 km/h (3 Bft) NW 315 8,5 C 15,5 C
27.03.2012 14:47 15,6 C 62 % 1030,6 hPa 0,0 l/m 3,6 km/h (1 Bft) W-NW 292 8,3 C 15,6 C
27.03.2012 14:52 15,8 C 62 % 1030,6 hPa 0,0 l/m 6,5 km/h (2 Bft) NW 315 8,5 C 15,8 C
27.03.2012 14:57 15,9 C 61 % 1030,5 hPa 0,0 l/m 3,6 km/h (1 Bft) N-NW 337 8,4 C 15,9 C
27.03.2012 15:02 16,1 C 61 % 1030,5 hPa 0,0 l/m 9,4 km/h (2 Bft) NW 315 8,6 C 16,1 C
27.03.2012 15:07 16,3 C 61 % 1030,5 hPa 0,0 l/m 6,8 km/h (2 Bft) N-NO 22 8,8 C 16,3 C
27.03.2012 15:12 16,2 C 60 % 1030,5 hPa 0,0 l/m 6,5 km/h (2 Bft) N 360 8,4 C 16,2 C
27.03.2012 15:17 16,3 C 61 % 1030,4 hPa 0,0 l/m 6,8 km/h (2 Bft) N-NW 337 8,8 C 16,3 C
27.03.2012 15:22 16,4 C 60 % 1030,5 hPa 0,0 l/m 7,9 km/h (2 Bft) W-NW 292 8,6 C 16,4 C
27.03.2012 15:27 16,4 C 60 % 1030,6 hPa 0,0 l/m 7,2 km/h (2 Bft) O-NO 67 8,6 C 16,4 C
27.03.2012 15:32 16,5 C 60 % 1030,5 hPa 0,0 l/m 12,2 km/h (2 Bft) N-NW 337 8,7 C 16,5 C
27.03.2012 15:37 16,6 C 60 % 1030,5 hPa 0,0 l/m 13,3 km/h (3 Bft) NW 315 8,8 C 16,6 C
27.03.2012 15:42 16,6 C 59 % 1030,5 hPa 0,0 l/m 4,0 km/h (1 Bft) NW 315 8,6 C 16,6 C
27.03.2012 15:47 16,6 C 59 % 1030,5 hPa 0,0 l/m 6,1 km/h (2 Bft) NO 45 8,6 C 16,6 C
27.03.2012 15:52 16,8 C 59 % 1030,4 hPa 0,0 l/m 0,0 km/h (0 Bft) O 90 8,7 C 16,8 C
27.03.2012 15:57 16,9 C 59 % 1030,3 hPa 0,0 l/m 1,8 km/h (1 Bft) N 360 8,8 C 16,9 C
27.03.2012 16:02 17,0 C 58 % 1030,5 hPa 0,0 l/m 5,4 km/h (1 Bft) N 360 8,7 C 17,0 C
27.03.2012 16:07 17,0 C 58 % 1030,3 hPa 0,0 l/m 4,7 km/h (1 Bft) N-NW 337 8,7 C 17,0 C
27.03.2012 16:12 17,1 C 57 % 1030,4 hPa 0,0 l/m 4,0 km/h (1 Bft) N-NO 22 8,5 C 17,1 C
27.03.2012 16:17 17,1 C 57 % 1030,4 hPa 0,0 l/m 7,2 km/h (2 Bft) N-NO 22 8,5 C 17,1 C
27.03.2012 16:22 17,2 C 57 % 1030,3 hPa 0,0 l/m 4,3 km/h (1 Bft) W-NW 292 8,6 C 17,2 C
27.03.2012 16:27 17,3 C 57 % 1030,2 hPa 0,0 l/m 4,3 km/h (1 Bft) NW 315 8,7 C 17,3 C
27.03.2012 16:32 17,3 C 56 % 1030,5 hPa 0,0 l/m 5,8 km/h (2 Bft) N-NO 22 8,4 C 17,3 C
27.03.2012 16:37 17,4 C 56 % 1030,5 hPa 0,0 l/m 6,5 km/h (2 Bft) NO 45 8,5 C 17,4 C
27.03.2012 16:42 17,4 C 56 % 1030,5 hPa 0,0 l/m 7,6 km/h (2 Bft) NO 45 8,5 C 17,4 C
27.03.2012 16:47 17,4 C 55 % 1030,3 hPa 0,0 l/m 7,9 km/h (2 Bft) N-NO 22 8,3 C 17,4 C
27.03.2012 16:52 17,4 C 56 % 1030,4 hPa 0,0 l/m 3,6 km/h (1 Bft) NO 45 8,5 C 17,4 C
27.03.2012 16:57 17,3 C 56 % 1030,5 hPa 0,0 l/m 2,9 km/h (1 Bft) NO 45 8,4 C 17,3 C
27.03.2012 17:02 17,4 C 56 % 1030,3 hPa 0,0 l/m 2,5 km/h (1 Bft) N 360 8,5 C 17,4 C
27.03.2012 17:07 17,3 C 56 % 1030,2 hPa 0,0 l/m 6,8 km/h (2 Bft) N-NW 337 8,4 C 17,3 C
27.03.2012 17:12 17,3 C 55 % 1030,1 hPa 0,0 l/m 4,3 km/h (1 Bft) W-NW 292 8,2 C 17,3 C
27.03.2012 17:17 17,3 C 55 % 1030,1 hPa 0,0 l/m 6,1 km/h (2 Bft) NW 315 8,2 C 17,3 C
27.03.2012 17:22 17,3 C 55 % 1030,3 hPa 0,0 l/m 9,7 km/h (2 Bft) N 360 8,2 C 17,3 C
27.03.2012 17:27 17,3 C 55 % 1030,2 hPa 0,0 l/m 4,3 km/h (1 Bft) NO 45 8,2 C 17,3 C
27.03.2012 17:32 17,2 C 55 % 1030,2 hPa 0,0 l/m 3,2 km/h (1 Bft) N 360 8,1 C 17,2 C
27.03.2012 17:37 17,2 C 55 % 1030,3 hPa 0,0 l/m 3,2 km/h (1 Bft) NO 45 8,1 C 17,2 C
27.03.2012 17:42 17,2 C 55 % 1030,1 hPa 0,0 l/m 2,9 km/h (1 Bft) N-NO 22 8,1 C 17,2 C
27.03.2012 17:47 17,2 C 55 % 1030,2 hPa 0,0 l/m 2,2 km/h (1 Bft) NW 315 8,1 C 17,2 C
27.03.2012 17:52 17,3 C 56 % 1030,1 hPa 0,0 l/m 2,5 km/h (1 Bft) N-NO 22 8,4 C 17,3 C
27.03.2012 17:57 17,2 C 55 % 1030,1 hPa 0,0 l/m 3,6 km/h (1 Bft) NO 45 8,1 C 17,2 C
27.03.2012 18:02 17,2 C 55 % 1030,1 hPa 0,0 l/m 4,0 km/h (1 Bft) W-NW 292 8,1 C 17,2 C
27.03.2012 18:07 17,1 C 56 % 1030,1 hPa 0,0 l/m 0,0 km/h (0 Bft) N-NW 337 8,3 C 17,1 C
27.03.2012 18:12 17,1 C 55 % 1030,2 hPa 0,0 l/m 1,4 km/h (1 Bft) N 360 8,0 C 17,1 C
27.03.2012 18:17 17,1 C 55 % 1030,2 hPa 0,0 l/m 6,5 km/h (2 Bft) N-NO 22 8,0 C 17,1 C
27.03.2012 18:22 17,0 C 55 % 1030,3 hPa 0,0 l/m 4,7 km/h (1 Bft) N-NO 22 7,9 C 17,0 C
27.03.2012 18:27 17,0 C 55 % 1030,1 hPa 0,5 l/m 4,7 km/h (1 Bft) NW 315 7,9 C 17,0 C
27.03.2012 18:32 16,9 C 55 % 1030,1 hPa 0,0 l/m 5,0 km/h (1 Bft) NW 315 7,8 C 16,9 C
27.03.2012 18:37 16,8 C 55 % 1030,2 hPa 0,0 l/m 2,5 km/h (1 Bft) N 360 7,7 C 16,8 C
27.03.2012 18:42 16,7 C 56 % 1030,1 hPa 0,0 l/m 4,3 km/h (1 Bft) N-NW 337 7,9 C 16,7 C
27.03.2012 18:47 16,6 C 57 % 1030,2 hPa 0,0 l/m 3,6 km/h (1 Bft) N 360 8,0 C 16,6 C
27.03.2012 18:52 16,5 C 57 % 1030,2 hPa 0,0 l/m 2,2 km/h (1 Bft) N-NW 337 8,0 C 16,5 C
27.03.2012 18:57 16,4 C 58 % 1030,2 hPa 0,0 l/m 2,5 km/h (1 Bft) NO 45 8,1 C 16,4 C
27.03.2012 19:02 16,3 C 58 % 1030,0 hPa 0,0 l/m 2,2 km/h (1 Bft) N 360 8,0 C 16,3 C
27.03.2012 19:07 16,1 C 59 % 1030,2 hPa 0,0 l/m 3,2 km/h (1 Bft) NW 315 8,1 C 16,1 C
27.03.2012 19:12 15,9 C 59 % 1030,1 hPa 0,0 l/m 0,0 km/h (0 Bft) NW 315 7,9 C 15,9 C
27.03.2012 19:17 15,9 C 60 % 1030,1 hPa 0,0 l/m 3,2 km/h (1 Bft) NW 315 8,1 C 15,9 C
27.03.2012 19:22 15,7 C 60 % 1030,2 hPa 0,0 l/m 0,0 km/h (0 Bft) W-NW 292 8,0 C 15,7 C
27.03.2012 19:27 15,5 C 60 % 1030,2 hPa 0,0 l/m 0,0 km/h (0 Bft) NW 315 7,8 C 15,5 C
27.03.2012 19:32 15,4 C 61 % 1030,1 hPa 0,0 l/m 0,0 km/h (0 Bft) N-NW 337 7,9 C 15,4 C
27.03.2012 19:37 15,3 C 61 % 1030,1 hPa 0,0 l/m 0,0 km/h (0 Bft) W-NW 292 7,8 C 15,3 C
27.03.2012 19:42 14,9 C 61 % 1030,1 hPa 0,0 l/m 0,0 km/h (0 Bft) NW 315 7,4 C 14,9 C
27.03.2012 19:47 14,9 C 62 % 1030,2 hPa 0,0 l/m 0,0 km/h (0 Bft) NW 315 7,7 C 14,9 C
27.03.2012 19:52 14,9 C 62 % 1030,2 hPa 0,0 l/m 3,2 km/h (1 Bft) W-NW 292 7,7 C 14,9 C
27.03.2012 19:57 14,7 C 63 % 1030,2 hPa 0,0 l/m 0,0 km/h (0 Bft) W-NW 292 7,7 C 14,7 C
27.03.2012 20:02 14,5 C 63 % 1030,2 hPa 0,0 l/m 0,0 km/h (0 Bft) W-NW 292 7,5 C 14,5 C
27.03.2012 20:07 14,4 C 63 % 1030,2 hPa 0,0 l/m 0,0 km/h (0 Bft) W-NW 292 7,4 C 14,4 C
27.03.2012 20:12 14,2 C 63 % 1030,1 hPa 0,0 l/m 0,0 km/h (0 Bft) W-NW 292 7,3 C 14,2 C
27.03.2012 20:17 14,1 C 64 % 1030,3 hPa 0,0 l/m 2,2 km/h (1 Bft) W-NW 292 7,4 C 14,1 C
27.03.2012 20:22 13,9 C 64 % 1030,2 hPa 0,0 l/m 2,2 km/h (1 Bft) W 270 7,2 C 13,9 C
27.03.2012 20:27 13,9 C 65 % 1030,1 hPa 0,0 l/m 2,2 km/h (1 Bft) W-SW 247 7,4 C 13,9 C
27.03.2012 20:32 13,8 C 65 % 1030,0 hPa 0,0 l/m 0,0 km/h (0 Bft) W-SW 247 7,3 C 13,8 C
27.03.2012 20:37 13,6 C 65 % 1030,1 hPa 0,0 l/m 0,0 km/h (0 Bft) W 270 7,1 C 13,6 C
27.03.2012 20:42 13,5 C 66 % 1030,0 hPa 0,0 l/m 0,0 km/h (0 Bft) W 270 7,3 C 13,5 C
27.03.2012 20:47 13,3 C 66 % 1030,2 hPa 0,0 l/m 0,0 km/h (0 Bft) W-NW 292 7,1 C 13,3 C
27.03.2012 20:52 13,1 C 66 % 1030,1 hPa 0,0 l/m 0,0 km/h (0 Bft) NW 315 6,9 C 13,1 C
27.03.2012 20:57 13,0 C 67 % 1030,2 hPa 0,0 l/m 1,4 km/h (1 Bft) W 270 7,0 C 13,0 C
27.03.2012 21:02 12,9 C 67 % 1030,1 hPa 0,0 l/m 2,5 km/h (1 Bft) W-NW 292 6,9 C 12,9 C
27.03.2012 21:07 12,8 C 68 % 1030,0 hPa 0,0 l/m 1,8 km/h (1 Bft) W-NW 292 7,0 C 12,8 C
27.03.2012 21:12 12,8 C 68 % 1030,1 hPa 0,0 l/m 0,0 km/h (0 Bft) W-NW 292 7,0 C 12,8 C
27.03.2012 21:17 12,6 C 68 % 1030,1 hPa 0,0 l/m 1,1 km/h (1 Bft) W-NW 292 6,9 C 12,6 C
27.03.2012 21:22 12,6 C 69 % 1030,0 hPa 0,0 l/m 0,0 km/h (0 Bft) NW 315 7,1 C 12,6 C
27.03.2012 21:27 12,4 C 69 % 1030,1 hPa 0,0 l/m 0,0 km/h (0 Bft) N-NW 337 6,9 C 12,4 C
27.03.2012 21:32 12,3 C 70 % 1030,2 hPa 0,0 l/m 0,0 km/h (0 Bft) N-NW 337 7,0 C 12,3 C
27.03.2012 21:37 12,3 C 70 % 1030,1 hPa 0,0 l/m 1,1 km/h (1 Bft) NW 315 7,0 C 12,3 C
27.03.2012 21:42 12,2 C 70 % 1030,0 hPa 0,0 l/m 0,0 km/h (0 Bft) NW 315 6,9 C 12,2 C
27.03.2012 21:47 12,1 C 70 % 1030,1 hPa 0,0 l/m 0,0 km/h (0 Bft) W-NW 292 6,8 C 12,1 C
27.03.2012 21:52 12,1 C 70 % 1030,3 hPa 0,0 l/m 0,0 km/h (0 Bft) W-NW 292 6,8 C 12,1 C
27.03.2012 21:57 12,1 C 70 % 1030,2 hPa 0,0 l/m 0,0 km/h (0 Bft) W-NW 292 6,8 C 12,1 C
27.03.2012 22:02 11,9 C 70 % 1030,2 hPa 0,0 l/m 0,0 km/h (0 Bft) W-NW 292 6,6 C 11,9 C
27.03.2012 22:07 11,9 C 71 % 1030,2 hPa 0,0 l/m 0,0 km/h (0 Bft) W-NW 292 6,8 C 11,9 C
27.03.2012 22:12 11,9 C 71 % 1030,2 hPa 0,0 l/m 0,0 km/h (0 Bft) W-NW 292 6,8 C 11,9 C
27.03.2012 22:17 11,8 C 71 % 1029,9 hPa 0,0 l/m 0,0 km/h (0 Bft) W-NW 292 6,7 C 11,8 C
27.03.2012 22:22 11,6 C 71 % 1030,1 hPa 0,0 l/m 0,0 km/h (0 Bft) W-NW 292 6,5 C 11,6 C
27.03.2012 22:27 11,6 C 71 % 1030,1 hPa 0,0 l/m 0,0 km/h (0 Bft) W-NW 292 6,5 C 11,6 C
27.03.2012 22:32 11,4 C 72 % 1030,0 hPa 0,0 l/m 0,0 km/h (0 Bft) W-NW 292 6,5 C 11,4 C
27.03.2012 22:37 11,4 C 72 % 1030,1 hPa 0,0 l/m 1,4 km/h (1 Bft) W-NW 292 6,5 C 11,4 C
27.03.2012 22:42 11,3 C 73 % 1029,8 hPa 0,0 l/m 0,0 km/h (0 Bft) W-NW 292 6,6 C 11,3 C
27.03.2012 22:47 11,3 C 73 % 1029,8 hPa 0,0 l/m 0,0 km/h (0 Bft) W-NW 292 6,6 C 11,3 C
27.03.2012 22:52 11,2 C 73 % 1029,9 hPa 0,0 l/m 1,4 km/h (1 Bft) W 270 6,5 C 11,2 C
27.03.2012 22:57 11,2 C 73 % 1029,8 hPa 0,0 l/m 0,0 km/h (0 Bft) W-NW 292 6,5 C 11,2 C
27.03.2012 23:02 11,1 C 74 % 1029,9 hPa 0,0 l/m 2,5 km/h (1 Bft) NW 315 6,6 C 11,1 C
27.03.2012 23:07 11,1 C 74 % 1029,8 hPa 0,0 l/m 7,2 km/h (2 Bft) W-NW 292 6,6 C 11,1 C
27.03.2012 23:12 11,1 C 75 % 1029,8 hPa 0,0 l/m 0,0 km/h (0 Bft) NW 315 6,8 C 11,1 C
27.03.2012 23:17 11,1 C 75 % 1029,8 hPa 0,0 l/m 3,6 km/h (1 Bft) NW 315 6,8 C 11,1 C
27.03.2012 23:22 11,1 C 75 % 1030,0 hPa 0,0 l/m 1,4 km/h (1 Bft) N-NW 337 6,8 C 11,1 C
27.03.2012 23:27 11,1 C 75 % 1030,0 hPa 0,0 l/m 4,7 km/h (1 Bft) NW 315 6,8 C 11,1 C
27.03.2012 23:32 11,0 C 75 % 1029,8 hPa 0,0 l/m 4,0 km/h (1 Bft) N-NW 337 6,7 C 11,0 C
27.03.2012 23:37 10,9 C 76 % 1030,1 hPa 0,0 l/m 2,9 km/h (1 Bft) W-NW 292 6,8 C 10,9 C
27.03.2012 23:42 10,9 C 76 % 1030,0 hPa 0,0 l/m 2,5 km/h (1 Bft) NW 315 6,8 C 10,9 C
27.03.2012 23:47 10,8 C 76 % 1030,1 hPa 0,0 l/m 3,2 km/h (1 Bft) W-NW 292 6,7 C 10,8 C
27.03.2012 23:52 10,8 C 76 % 1029,7 hPa 0,0 l/m 2,2 km/h (1 Bft) NW 315 6,7 C 10,8 C
27.03.2012 23:57 10,7 C 76 % 1029,9 hPa 0,0 l/m 2,2 km/h (1 Bft) W-NW 292 6,6 C 10,7 C
_ Min-Zeit 07:22 16:47 23:52 - 00:07 - - 07:22 03:57
Minimum _ 5,6 C 55 % 1029,7 hPa - 0,0 km/h (0 Bft) - - 3,6 C 3,2 C
_ Max-Zeit 16:37 03:47 00:17 18:27 13:47 - - 15:57 16:37
Maximum _ 17,4 C 87 % 1033,3 hPa 0,5 l/m 23,4 km/h
NW (4 Bft)
- - 8,8 C 17,4 C
Durchschnitt _ 10,9 C 74 % 1030,8 hPa #0,5 l/m 5,5 km/h (1 Bft) W-NW - 6,2 C 10,4 C
(c) by David Heller